Time;durP1;ratioP1;P1;durP2;ratioP2;P2;SDS_P1;SDS_P2;PMS_P1;PMS_P2;Temp;Humidity;BMP_temperature;BMP_pressure;BME280_temperature;BME280_humidity;BME280_pressure;Samples;Min_cycle;Max_cycle;Signal;HPM_P1;HPM_P2
2022/07/03 00:00:32;;;;;;;4.33;4.23;;;19.10;1.00;;;;;;6317726;28;20232;-55
2022/07/03 00:03:35;;;;;;;5.00;4.80;;;19.10;1.00;;;;;;6334282;28;20466;-55
2022/07/03 00:06:38;;;;;;;4.83;4.53;;;19.10;1.00;;;;;;6334439;28;20232;-55
2022/07/03 00:09:41;;;;;;;5.00;4.80;;;19.10;1.00;;;;;;6324431;28;20312;-55
2022/07/03 00:12:45;;;;;;;4.70;4.50;;;19.00;1.00;;;;;;6310089;28;20247;-56
2022/07/03 00:15:52;;;;;;;4.70;4.40;;;19.00;1.00;;;;;;6311202;28;20319;-54
2022/07/03 00:18:55;;;;;;;4.60;4.40;;;19.00;1.00;;;;;;6307097;28;20261;-55
2022/07/03 00:22:13;;;;;;;5.10;4.70;;;18.90;1.00;;;;;;6315757;28;20330;-56
2022/07/03 00:25:17;;;;;;;4.70;4.50;;;18.90;1.00;;;;;;6334610;28;20338;-56
2022/07/03 00:28:24;;;;;;;4.83;4.73;;;18.90;1.00;;;;;;6333038;28;20424;-55
2022/07/03 00:31:29;;;;;;;7.40;5.33;;;18.80;1.00;;;;;;6335102;28;20228;-56
2022/07/03 00:34:32;;;;;;;5.00;4.73;;;18.80;1.00;;;;;;6303480;28;20228;-55
2022/07/03 00:37:35;;;;;;;4.30;4.20;;;18.80;1.00;;;;;;6331462;28;20330;-53
2022/07/03 00:40:39;;;;;;;5.03;4.73;;;18.70;1.00;;;;;;6335071;28;20381;-56
2022/07/03 00:43:43;;;;;;;4.70;4.50;;;18.70;1.00;;;;;;6332238;28;20300;-56
2022/07/03 00:46:51;;;;;;;4.83;4.63;;;18.70;1.00;;;;;;6333762;28;20408;-56
2022/07/03 00:49:57;;;;;;;4.90;4.80;;;18.70;1.00;;;;;;6334779;28;20327;-54
2022/07/03 00:53:03;;;;;;;5.13;4.83;;;18.60;1.00;;;;;;6319022;28;20324;-55
2022/07/03 00:56:06;;;;;;;4.97;4.77;;;18.60;1.00;;;;;;6309855;28;20229;-57
2022/07/03 00:59:10;;;;;;;5.07;4.87;;;18.60;1.00;;;;;;6312990;28;20258;-57
2022/07/03 01:02:34;;;;;;;5.90;5.53;;;18.50;1.00;;;;;;6314007;28;20722;-56
2022/07/03 01:05:39;;;;;;;5.60;5.20;;;18.50;1.00;;;;;;6333781;28;20246;-56
2022/07/03 01:08:46;;;;;;;5.73;5.33;;;18.50;1.00;;;;;;6329454;28;20254;-56
2022/07/03 01:11:56;;;;;;;5.03;4.93;;;18.40;1.00;;;;;;6317835;28;20232;-55
2022/07/03 01:15:12;;;;;;;6.93;5.50;;;18.50;1.00;;;;;;6309166;28;20716;-56
2022/07/03 01:18:29;;;;;;;5.47;5.10;;;18.40;1.00;;;;;;6307197;28;20485;-55
2022/07/03 01:21:36;;;;;;;5.57;5.27;;;18.40;1.00;;;;;;6308116;28;20673;-56
2022/07/03 01:24:48;;;;;;;4.87;4.67;;;18.30;1.00;;;;;;6325062;28;20232;-55
2022/07/03 01:28:08;;;;;;;5.63;5.33;;;18.30;1.00;;;;;;6322938;28;20282;-54
2022/07/03 01:31:15;;;;;;;5.93;5.53;;;18.30;1.00;;;;;;6325421;28;20239;-54
2022/07/03 01:34:20;;;;;;;6.33;5.87;;;18.20;1.00;;;;;;6332671;28;20269;-57
2022/07/03 01:37:27;;;;;;;5.40;5.20;;;18.20;1.00;;;;;;6329432;28;20504;-55
2022/07/03 01:40:33;;;;;;;5.10;5.00;;;18.20;1.00;;;;;;6310924;28;20793;-56
2022/07/03 01:43:42;;;;;;;5.40;5.17;;;18.20;1.00;;;;;;6307904;28;20296;-57
2022/07/03 01:46:46;;;;;;;5.47;5.07;;;18.10;1.00;;;;;;6307739;28;20236;-56
2022/07/03 01:49:54;;;;;;;5.97;5.67;;;18.10;1.00;;;;;;6328980;28;20648;-56
2022/07/03 01:53:01;;;;;;;5.60;5.40;;;18.00;1.00;;;;;;6329725;28;20235;-53
2022/07/03 01:56:06;;;;;;;5.50;5.30;;;18.00;1.00;;;;;;6332709;28;20367;-55
2022/07/03 01:59:10;;;;;;;6.07;5.77;;;18.00;1.00;;;;;;6312045;28;20236;-56
2022/07/03 02:02:21;;;;;;;5.47;5.27;;;18.00;1.00;;;;;;6331171;28;20306;-60
2022/07/03 02:05:31;;;;;;;6.43;6.07;;;17.90;1.00;;;;;;6332936;28;20257;-57
2022/07/03 02:08:44;;;;;;;5.67;5.47;;;17.90;1.00;;;;;;6316646;28;20240;-57
2022/07/03 02:12:14;;;;;;;5.83;5.47;;;17.90;1.00;;;;;;6322293;28;20228;-56
2022/07/03 02:15:30;;;;;;;5.83;5.63;;;17.80;1.00;;;;;;6332172;28;20271;-56
2022/07/03 02:18:36;;;;;;;5.70;5.40;;;17.80;1.00;;;;;;6323586;28;20362;-57
2022/07/03 02:21:47;;;;;;;6.13;5.83;;;17.70;1.00;;;;;;6307301;28;20236;-57
2022/07/03 02:24:50;;;;;;;5.70;5.50;;;17.70;1.00;;;;;;6329736;28;20307;-54
2022/07/03 02:27:57;;;;;;;6.33;5.93;;;17.70;1.00;;;;;;6325834;28;20373;-56
2022/07/03 02:31:03;;;;;;;5.77;5.47;;;17.70;1.00;;;;;;6307356;28;20506;-57
2022/07/03 02:34:08;;;;;;;5.57;5.27;;;17.60;1.00;;;;;;6320601;28;20228;-56
2022/07/03 02:37:18;;;;;;;5.87;5.57;;;17.60;1.00;;;;;;6328476;28;20858;-56
2022/07/03 02:40:28;;;;;;;6.20;5.90;;;17.60;1.00;;;;;;6319520;28;20229;-56
2022/07/03 02:43:38;;;;;;;6.13;5.83;;;17.60;1.00;;;;;;6306735;28;20614;-56
2022/07/03 02:46:55;;;;;;;6.30;5.90;;;17.60;1.00;;;;;;6306136;28;20266;-57
2022/07/03 02:50:04;;;;;;;6.30;6.00;;;17.60;1.00;;;;;;6306463;28;20248;-56
2022/07/03 02:53:20;;;;;;;6.23;5.90;;;17.50;1.00;;;;;;6304128;28;20232;-54
2022/07/03 02:56:31;;;;;;;6.07;5.83;;;17.50;1.00;;;;;;6307201;28;20716;-56
2022/07/03 02:59:46;;;;;;;5.30;5.10;;;17.50;1.00;;;;;;6312273;28;20374;-56
2022/07/03 03:02:56;;;;;;;6.47;5.97;;;17.50;1.00;;;;;;6330608;28;20221;-57
2022/07/03 03:06:04;;;;;;;6.23;5.93;;;17.50;1.00;;;;;;6329668;28;20313;-56
2022/07/03 03:09:11;;;;;;;7.20;6.77;;;17.50;1.00;;;;;;6327595;28;20318;-56
2022/07/03 03:12:15;;;;;;;6.20;5.90;;;17.40;1.00;;;;;;6330704;28;20239;-56
2022/07/03 03:15:22;;;;;;;6.27;5.97;;;17.40;1.00;;;;;;6326575;28;20246;-56
2022/07/03 03:18:29;;;;;;;6.50;6.10;;;17.40;1.00;;;;;;6301788;28;20347;-56
2022/07/03 03:21:38;;;;;;;6.10;5.70;;;17.40;1.00;;;;;;6316848;28;20316;-57
2022/07/03 03:24:41;;;;;;;6.17;5.87;;;17.40;1.00;;;;;;6329324;28;20270;-56
2022/07/03 03:27:44;;;;;;;7.03;6.67;;;17.40;1.00;;;;;;6325859;28;20320;-57
2022/07/03 03:31:12;;;;;;;6.20;5.80;;;17.40;1.00;;;;;;6304170;28;20452;-56
2022/07/03 03:34:25;;;;;;;5.77;5.57;;;17.40;1.00;;;;;;6317651;28;20842;-56
2022/07/03 03:37:28;;;;;;;6.13;5.83;;;17.50;1.00;;;;;;6324674;28;20236;-57
2022/07/03 03:40:33;;;;;;;6.03;5.63;;;17.50;1.00;;;;;;6314596;28;21712;-57
2022/07/03 03:43:37;;;;;;;5.40;5.20;;;17.50;1.00;;;;;;6329774;28;20232;-56
2022/07/03 03:46:40;;;;;;;6.30;6.00;;;17.50;1.00;;;;;;6330688;28;20360;-56
2022/07/03 03:49:46;;;;;;;5.97;5.77;;;17.50;1.00;;;;;;6321808;28;20251;-56
2022/07/03 03:52:49;;;;;;;6.80;6.20;;;17.60;1.00;;;;;;6331425;28;20252;-57
2022/07/03 03:56:00;;;;;;;6.40;6.00;;;17.60;1.00;;;;;;6325540;28;20373;-57
2022/07/03 03:59:13;;;;;;;5.83;5.53;;;17.60;1.00;;;;;;6327798;27;20243;-57
2022/07/03 04:02:17;;;;;;;5.97;5.67;;;17.60;1.00;;;;;;6333142;28;20224;-56
2022/07/03 04:05:22;;;;;;;6.13;5.93;;;17.70;1.00;;;;;;6333190;27;20328;-57
2022/07/03 04:08:26;;;;;;;6.47;6.10;;;17.70;1.00;;;;;;6322206;28;20300;-56
2022/07/03 04:11:29;;;;;;;6.50;6.10;;;17.70;1.00;;;;;;6328424;28;20326;-57
2022/07/03 04:14:32;;;;;;;6.63;6.33;;;17.60;1.00;;;;;;6324959;28;20323;-56
2022/07/03 04:17:35;;;;;;;6.63;6.13;;;17.70;1.00;;;;;;6329923;28;20675;-58
2022/07/03 04:20:39;;;;;;;5.90;5.70;;;17.70;1.00;;;;;;6320006;28;20316;-56
2022/07/03 04:23:42;;;;;;;6.60;6.30;;;17.70;1.00;;;;;;6322721;28;20227;-56
2022/07/03 04:26:45;;;;;;;5.77;5.57;;;17.80;1.00;;;;;;6329184;27;20323;-55
2022/07/03 04:29:48;;;;;;;6.03;5.77;;;17.80;1.00;;;;;;6333602;27;20614;-56
2022/07/03 04:32:51;;;;;;;6.70;6.30;;;17.80;1.00;;;;;;6325641;28;20239;-56
2022/07/03 04:36:00;;;;;;;6.17;5.57;;;17.80;1.00;;;;;;6334141;28;20262;-57
2022/07/03 04:39:03;;;;;;;6.00;5.63;;;17.90;1.00;;;;;;6328078;28;21162;-57
2022/07/03 04:42:06;;;;;;;6.10;5.80;;;17.90;1.00;;;;;;6334258;28;20318;-56
2022/07/03 04:45:09;;;;;;;5.73;5.43;;;17.90;1.00;;;;;;6332994;28;20244;-56
2022/07/03 04:48:13;;;;;;;5.47;5.17;;;18.00;1.00;;;;;;6331407;28;20255;-57
2022/07/03 04:51:17;;;;;;;5.67;5.33;;;18.10;1.00;;;;;;6333721;27;20675;-55
2022/07/03 04:54:20;;;;;;;6.00;5.70;;;18.20;1.00;;;;;;6330619;27;20224;-57
2022/07/03 04:57:23;;;;;;;5.87;5.57;;;18.30;1.00;;;;;;6332652;27;20238;-55
2022/07/03 05:00:26;;;;;;;6.83;6.43;;;18.50;1.00;;;;;;6333730;28;20364;-57
2022/07/03 05:03:29;;;;;;;5.93;5.50;;;18.60;1.00;;;;;;6325898;28;20309;-56
2022/07/03 05:06:33;;;;;;;5.47;5.17;;;18.80;1.00;;;;;;6331251;28;20255;-57
2022/07/03 05:09:36;;;;;;;6.40;6.07;;;19.20;1.00;;;;;;6329122;27;20236;-57
2022/07/03 05:12:39;;;;;;;5.80;5.50;;;19.50;1.00;;;;;;6328749;28;20229;-57
2022/07/03 05:15:43;;;;;;;5.70;5.50;;;19.70;1.00;;;;;;6342537;27;20399;-56
2022/07/03 05:18:46;;;;;;;5.73;5.33;;;20.00;1.00;;;;;;6329698;28;20749;-56
2022/07/03 05:21:50;;;;;;;5.63;5.43;;;20.20;1.00;;;;;;6325167;28;20301;-55
2022/07/03 05:24:53;;;;;;;5.30;5.10;;;20.60;1.00;;;;;;6330584;28;20268;-56
2022/07/03 05:27:57;;;;;;;5.10;4.80;;;21.00;1.00;;;;;;6328618;28;20365;-57
2022/07/03 05:31:01;;;;;;;5.07;4.97;;;21.40;1.00;;;;;;6332931;27;20310;-57
2022/07/03 05:34:04;;;;;;;5.73;5.20;;;21.70;1.00;;;;;;6328591;28;20228;-57
2022/07/03 05:37:08;;;;;;;5.03;4.67;;;22.00;1.00;;;;;;6327542;28;20228;-56
2022/07/03 05:40:15;;;;;;;5.20;4.80;;;22.40;1.00;;;;;;6331628;27;20297;-57
2022/07/03 05:43:18;;;;;;;4.90;4.60;;;22.60;1.00;;;;;;6332372;28;20307;-57
2022/07/03 05:46:21;;;;;;;5.03;4.70;;;22.90;1.00;;;;;;6328986;28;20783;-57
2022/07/03 05:49:24;;;;;;;4.83;4.30;;;23.20;1.00;;;;;;6326909;27;20236;-57
2022/07/03 05:52:28;;;;;;;4.53;4.43;;;23.30;1.00;;;;;;6329475;28;20284;-56
2022/07/03 05:55:31;;;;;;;3.90;3.80;;;23.50;1.00;;;;;;6330094;28;20839;-57
2022/07/03 05:58:34;;;;;;;4.70;4.43;;;23.80;1.00;;;;;;6326014;27;20239;-57
2022/07/03 06:01:37;;;;;;;4.30;4.20;;;23.90;1.00;;;;;;6330308;28;20319;-56
2022/07/03 06:04:40;;;;;;;4.87;4.67;;;24.10;1.00;;;;;;6324288;28;20313;-57
2022/07/03 06:07:44;;;;;;;5.27;4.83;;;24.20;1.00;;;;;;6326493;27;24085;-57
2022/07/03 06:10:47;;;;;;;4.30;4.20;;;24.20;1.00;;;;;;6331515;28;20281;-57
2022/07/03 06:13:50;;;;;;;4.40;4.30;;;24.40;1.00;;;;;;6327299;28;20377;-57
2022/07/03 06:16:53;;;;;;;4.73;4.37;;;24.40;1.00;;;;;;6330049;28;20288;-57
2022/07/03 06:19:56;;;;;;;4.60;4.30;;;24.30;1.00;;;;;;6330328;28;20247;-56
2022/07/03 06:23:00;;;;;;;4.47;4.20;;;24.50;1.00;;;;;;6321515;28;20258;-57
2022/07/03 06:26:03;;;;;;;4.77;4.47;;;24.80;1.00;;;;;;6335602;27;20711;-57
2022/07/03 06:29:06;;;;;;;4.37;4.20;;;25.10;1.00;;;;;;6329954;28;20254;-57
2022/07/03 06:32:09;;;;;;;3.87;3.77;;;25.20;1.00;;;;;;6329809;28;20730;-56
2022/07/03 06:35:12;;;;;;;4.20;4.03;;;25.40;1.00;;;;;;6330938;28;20389;-52
2022/07/03 06:38:16;;;;;;;4.50;4.30;;;25.70;1.00;;;;;;6327833;28;20319;-56
2022/07/03 06:41:19;;;;;;;3.93;3.60;;;25.80;1.00;;;;;;6324368;28;20359;-57
2022/07/03 06:44:22;;;;;;;9.93;4.23;;;25.90;1.00;;;;;;6330793;28;20681;-57
2022/07/03 06:47:27;;;;;;;5.60;3.83;;;25.90;1.00;;;;;;6328433;27;20320;-56
2022/07/03 06:50:30;;;;;;;4.50;4.30;;;26.30;1.00;;;;;;6336781;28;20266;-56
2022/07/03 06:53:34;;;;;;;3.77;3.73;;;26.30;1.00;;;;;;6327140;28;20288;-55
2022/07/03 06:56:37;;;;;;;3.67;3.47;;;26.70;1.00;;;;;;6330474;28;20312;-55
2022/07/03 06:59:41;;;;;;;3.47;3.23;;;27.00;1.00;;;;;;6326691;28;20581;-57
2022/07/03 07:02:44;;;;;;;3.93;3.43;;;27.10;1.00;;;;;;6329912;28;20293;-57
2022/07/03 07:05:47;;;;;;;5.87;3.90;;;27.10;1.00;;;;;;6329297;28;20618;-55
2022/07/03 07:08:51;;;;;;;3.53;3.40;;;27.10;1.00;;;;;;6321932;28;20380;-56
2022/07/03 07:11:54;;;;;;;4.07;3.87;;;27.40;1.00;;;;;;6324464;28;20318;-57
2022/07/03 07:14:57;;;;;;;3.73;3.50;;;27.50;1.00;;;;;;6331376;28;20235;-55
2022/07/03 07:18:01;;;;;;;3.60;3.50;;;27.50;1.00;;;;;;6328668;28;20285;-55
2022/07/03 07:21:04;;;;;;;4.23;4.13;;;27.70;1.00;;;;;;6329820;28;20261;-56
2022/07/03 07:24:09;;;;;;;3.80;3.60;;;27.80;1.00;;;;;;6323284;28;20480;-55
2022/07/03 07:27:12;;;;;;;3.70;3.60;;;27.70;1.00;;;;;;6329765;28;20234;-56
2022/07/03 07:30:15;;;;;;;3.50;3.40;;;27.60;1.00;;;;;;6334173;28;20235;-56
2022/07/03 07:33:17;;;;;;;3.57;3.47;;;27.40;1.00;;;;;;6330517;28;20401;-56
2022/07/03 07:36:20;;;;;;;3.20;3.13;;;27.40;1.00;;;;;;6332006;28;20458;-55
2022/07/03 07:39:25;;;;;;;4.47;4.17;;;27.50;1.00;;;;;;6329782;28;20444;-56
2022/07/03 07:42:28;;;;;;;3.53;3.40;;;27.30;1.00;;;;;;6323560;28;20228;-56
2022/07/03 07:45:31;;;;;;;3.17;3.07;;;27.00;1.00;;;;;;6305976;28;20263;-56
2022/07/03 07:48:35;;;;;;;4.13;3.83;;;26.90;1.00;;;;;;6333067;28;20239;-56
2022/07/03 07:51:45;;;;;;;3.97;3.67;;;26.80;1.00;;;;;;6334908;28;20267;-57
2022/07/03 07:54:50;;;;;;;3.20;3.20;;;26.60;1.00;;;;;;6330659;28;20266;-56
2022/07/03 07:58:02;;;;;;;3.87;3.60;;;26.60;1.00;;;;;;6334837;27;20247;-56
2022/07/03 08:08:33;;;;;;;4.07;3.77;;;26.40;1.00;;;;;;6327394;28;20236;-57
2022/07/03 08:11:37;;;;;;;5.03;3.77;;;26.40;1.00;;;;;;6330879;28;20224;-58
2022/07/03 08:14:40;;;;;;;5.23;3.57;;;26.20;1.00;;;;;;6334258;28;20784;-56
2022/07/03 08:17:43;;;;;;;3.60;3.50;;;26.10;1.00;;;;;;6333397;27;20232;-58
2022/07/03 08:20:46;;;;;;;3.67;3.47;;;26.20;1.00;;;;;;6332342;28;20379;-55
2022/07/03 08:23:49;;;;;;;6.90;3.93;;;26.10;1.00;;;;;;6330942;27;20313;-56
2022/07/03 08:26:53;;;;;;;3.80;3.70;;;26.10;1.00;;;;;;6335316;27;20782;-55
2022/07/03 08:29:56;;;;;;;3.70;3.50;;;26.00;1.00;;;;;;6333665;27;20611;-57
2022/07/03 08:32:59;;;;;;;4.17;3.80;;;26.00;1.00;;;;;;6333802;28;20759;-58
2022/07/03 08:36:03;;;;;;;3.40;3.40;;;26.10;1.00;;;;;;6336910;28;20236;-56
2022/07/03 08:39:05;;;;;;;4.17;3.87;;;26.10;1.00;;;;;;6332135;28;20236;-56
2022/07/03 08:42:12;;;;;;;3.83;3.43;;;26.20;1.00;;;;;;6333291;27;20307;-58
2022/07/03 08:45:19;;;;;;;4.23;4.03;;;26.10;1.00;;;;;;6330226;28;20239;-56
2022/07/03 08:48:23;;;;;;;4.00;3.90;;;26.20;1.00;;;;;;6332679;28;20297;-57
2022/07/03 08:51:26;;;;;;;4.27;3.97;;;26.50;1.00;;;;;;6336770;27;20573;-57
2022/07/03 08:54:31;;;;;;;3.90;3.70;;;26.50;1.00;;;;;;6331400;27;20313;-56
2022/07/03 08:57:37;;;;;;;3.53;3.53;;;26.70;1.00;;;;;;6332300;28;20905;-56
2022/07/03 09:00:46;;;;;;;3.97;3.87;;;26.80;1.00;;;;;;6318511;28;20242;-55
2022/07/03 09:03:51;;;;;;;3.53;3.43;;;26.90;1.00;;;;;;6326431;27;20330;-55
2022/07/03 09:06:55;;;;;;;4.10;3.70;;;26.90;1.00;;;;;;6327331;28;20243;-57
2022/07/03 09:09:59;;;;;;;4.17;3.93;;;26.90;1.00;;;;;;6331025;27;20265;-55
2022/07/03 09:13:03;;;;;;;4.37;4.07;;;27.00;1.00;;;;;;6335261;27;20246;-55
2022/07/03 09:16:14;;;;;;;3.60;3.50;;;27.30;1.00;;;;;;6338541;27;20633;-57
2022/07/03 09:19:42;;;;;;;4.13;3.80;;;27.30;1.00;;;;;;6333184;27;20389;-56
2022/07/03 09:22:45;;;;;;;3.33;3.27;;;27.40;1.00;;;;;;6321331;27;20510;-55
2022/07/03 09:25:52;;;;;;;4.00;3.70;;;27.60;1.00;;;;;;6332559;28;20266;-56
2022/07/03 09:28:59;;;;;;;2.70;2.70;;;27.70;1.00;;;;;;6325565;28;20309;-55
2022/07/03 09:32:02;;;;;;;3.27;3.13;;;27.70;1.00;;;;;;6331987;27;20778;-58
2022/07/03 09:35:19;;;;;;;3.53;3.33;;;27.80;1.00;;;;;;6332796;27;20233;-56
2022/07/03 09:38:23;;;;;;;3.27;3.27;;;28.00;1.00;;;;;;6319397;27;20357;-55
2022/07/03 09:41:26;;;;;;;3.70;3.50;;;28.20;1.00;;;;;;6328248;27;20285;-56
2022/07/03 09:44:34;;;;;;;3.20;3.10;;;28.30;1.00;;;;;;6318629;27;20367;-55
2022/07/03 09:47:37;;;;;;;3.10;2.93;;;28.10;1.00;;;;;;6318962;27;20792;-56
2022/07/03 09:50:45;;;;;;;3.60;3.50;;;28.00;1.00;;;;;;6339440;27;20243;-56
2022/07/03 09:53:53;;;;;;;3.50;3.47;;;28.00;1.00;;;;;;6312857;27;20311;-56
2022/07/03 09:56:59;;;;;;;3.20;3.20;;;28.10;1.00;;;;;;6327694;27;20323;-56
2022/07/03 10:00:19;;;;;;;3.60;2.93;;;27.90;1.00;;;;;;6335355;27;20303;-55
2022/07/03 10:03:22;;;;;;;3.50;3.40;;;27.90;1.00;;;;;;6326627;28;20718;-55
2022/07/03 10:06:25;;;;;;;3.40;3.30;;;27.90;1.00;;;;;;6329816;27;20362;-56
2022/07/03 10:09:30;;;;;;;3.57;3.47;;;27.90;1.00;;;;;;6322405;28;20259;-57
2022/07/03 10:12:33;;;;;;;7.13;3.60;;;27.90;1.00;;;;;;6315823;28;20239;-55
2022/07/03 10:15:39;;;;;;;3.10;3.00;;;27.90;1.00;;;;;;6333377;27;20261;-55
2022/07/03 10:18:48;;;;;;;3.77;3.30;;;28.00;1.00;;;;;;6333309;27;20235;-57
2022/07/03 10:21:54;;;;;;;3.07;3.00;;;28.10;1.00;;;;;;6331825;27;20272;-55
2022/07/03 10:25:05;;;;;;;4.00;3.07;;;28.00;1.00;;;;;;6331975;27;20345;-57
2022/07/03 10:28:09;;;;;;;5.70;3.97;;;28.10;1.00;;;;;;6321794;28;20252;-56
2022/07/03 10:31:14;;;;;;;3.87;3.77;;;28.00;1.00;;;;;;6314524;28;20232;-56
2022/07/03 10:34:18;;;;;;;3.30;3.23;;;28.20;1.00;;;;;;6323544;27;20778;-55
2022/07/03 10:37:23;;;;;;;3.00;2.90;;;28.20;1.00;;;;;;6316423;28;20488;-56
2022/07/03 10:47:50;;;;;;;3.37;3.17;;;28.70;1.00;;;;;;6325393;28;20311;-54
2022/07/03 10:51:12;;;;;;;3.40;3.30;;;28.80;1.00;;;;;;6255756;28;20275;-54
2022/07/03 10:54:17;;;;;;;3.70;3.60;;;28.90;1.00;;;;;;6344684;28;20224;-55
2022/07/03 10:57:20;;;;;;;3.17;3.00;;;28.70;1.00;;;;;;6309967;28;20237;-56
2022/07/03 11:00:23;;;;;;;3.07;2.87;;;28.70;1.00;;;;;;6305896;28;20243;-54
2022/07/03 11:03:56;;;;;;;3.83;3.60;;;28.80;1.00;;;;;;6304448;28;20358;-56
2022/07/03 11:07:11;;;;;;;3.63;3.43;;;28.90;1.00;;;;;;6328704;28;20278;-55
2022/07/03 11:11:54;;;;;;;3.50;3.40;;;28.90;1.00;;;;;;6334607;27;20282;-57
2022/07/03 11:14:22;;;;;;;3.67;3.57;;;28.90;1.00;;;;;;6231675;28;20246;-56
2022/07/03 11:17:25;;;;;;;3.10;3.00;;;29.10;1.00;;;;;;6240211;28;20695;-54
2022/07/03 11:20:29;;;;;;;3.13;2.97;;;29.10;1.00;;;;;;6335741;27;20600;-55
2022/07/03 11:23:38;;;;;;;3.90;3.47;;;28.80;1.00;;;;;;6325758;27;20242;-51
2022/07/03 11:27:08;;;;;;;3.50;3.30;;;28.70;1.00;;;;;;6329386;27;20636;-57
2022/07/03 11:30:12;;;;;;;3.40;3.30;;;28.60;1.00;;;;;;6339763;27;20322;-58
2022/07/03 11:33:43;;;;;;;2.80;2.70;;;28.60;1.00;;;;;;6330912;27;20236;-56
2022/07/03 11:36:47;;;;;;;3.00;2.83;;;28.60;1.00;;;;;;6334139;27;20223;-55
2022/07/03 11:39:56;;;;;;;3.23;3.13;;;28.60;1.00;;;;;;6332837;28;20592;-55
2022/07/03 11:43:01;;;;;;;3.57;3.40;;;28.50;1.00;;;;;;6331558;28;20296;-55
2022/07/03 11:46:05;;;;;;;2.70;2.70;;;28.50;1.00;;;;;;6335849;27;20308;-56
2022/07/03 11:49:09;;;;;;;3.33;3.22;;;28.60;1.00;;;;;;6341228;27;20359;-55
2022/07/03 11:52:13;;;;;;;3.22;3.13;;;28.80;1.00;;;;;;6337496;27;20350;-57
2022/07/03 11:55:16;;;;;;;2.90;2.80;;;29.00;1.00;;;;;;6327225;28;20292;-56
2022/07/03 11:58:19;;;;;;;3.17;2.60;;;29.30;1.00;;;;;;6344554;27;20304;-56
2022/07/03 12:01:31;;;;;;;2.10;2.10;;;29.50;1.00;;;;;;6334291;27;20242;-55
2022/07/03 12:04:34;;;;;;;2.70;2.60;;;29.50;1.00;;;;;;6342864;27;20319;-55
2022/07/03 12:07:38;;;;;;;2.88;2.78;;;29.60;1.00;;;;;;6330571;28;20236;-55
2022/07/03 12:10:42;;;;;;;2.97;2.97;;;29.50;1.00;;;;;;6337632;27;21077;-55
2022/07/03 12:13:45;;;;;;;2.97;2.15;;;29.30;1.00;;;;;;6338142;27;20274;-55
2022/07/03 12:16:53;;;;;;;2.97;2.90;;;29.20;1.00;;;;;;6329806;28;20304;-56
2022/07/03 12:19:58;;;;;;;2.67;2.67;;;29.20;1.00;;;;;;6339279;27;20735;-56
2022/07/03 12:23:03;;;;;;;2.70;2.70;;;29.30;1.00;;;;;;6328071;28;20340;-55
2022/07/03 12:26:06;;;;;;;3.05;2.85;;;29.50;1.00;;;;;;6334489;27;20413;-56
2022/07/03 12:29:10;;;;;;;3.03;2.92;;;29.70;1.00;;;;;;6340863;27;20622;-55
2022/07/03 12:32:14;;;;;;;2.72;2.50;;;29.90;1.00;;;;;;6329123;28;20368;-57
2022/07/03 12:35:21;;;;;;;3.67;2.58;;;30.00;1.00;;;;;;6327030;28;20244;-56
2022/07/03 12:38:33;;;;;;;2.38;2.38;;;30.20;1.00;;;;;;6296713;28;20259;-52
2022/07/03 12:41:36;;;;;;;2.85;2.65;;;30.30;1.00;;;;;;6337495;27;20397;-56
2022/07/03 12:44:39;;;;;;;2.85;2.75;;;30.30;1.00;;;;;;6333622;27;20319;-55
2022/07/03 12:47:42;;;;;;;2.70;2.60;;;30.30;1.00;;;;;;6331495;28;20319;-57
2022/07/03 12:50:45;;;;;;;2.08;2.08;;;30.30;1.00;;;;;;6326710;28;20439;-56
2022/07/03 12:53:56;;;;;;;2.88;2.47;;;30.20;1.00;;;;;;6344310;27;20545;-56
2022/07/03 12:59:16;;;;;;;2.88;2.67;;;30.40;1.00;;;;;;6333782;27;20772;-57
2022/07/03 13:00:27;;;;;;;2.58;2.47;;;30.30;1.00;;;;;;6320622;27;20590;-57
2022/07/03 13:03:32;;;;;;;2.75;2.75;;;30.10;1.00;;;;;;6333770;27;20312;-56
2022/07/03 13:06:45;;;;;;;3.13;2.97;;;29.60;1.00;;;;;;6333726;27;20495;-58
2022/07/03 13:09:54;;;;;;;2.42;2.42;;;29.60;1.00;;;;;;6330836;28;20795;-55
2022/07/03 13:12:58;;;;;;;3.00;2.95;;;29.60;1.00;;;;;;6331773;28;20240;-56
2022/07/03 13:16:02;;;;;;;3.60;2.38;;;29.90;1.00;;;;;;6329524;28;20240;-56
2022/07/03 13:19:06;;;;;;;2.85;2.75;;;30.00;1.00;;;;;;6329762;27;20865;-59
2022/07/03 13:22:09;;;;;;;2.55;2.40;;;30.30;1.00;;;;;;6328659;28;20494;-56
2022/07/03 13:25:13;;;;;;;2.97;2.88;;;30.30;1.00;;;;;;6331488;27;20366;-56
2022/07/03 13:28:16;;;;;;;2.50;2.40;;;30.40;1.00;;;;;;6330126;27;20319;-56
2022/07/03 13:31:19;;;;;;;2.58;2.38;;;30.60;1.00;;;;;;6337483;27;20321;-55
2022/07/03 13:34:23;;;;;;;2.25;2.20;;;30.90;1.00;;;;;;6319384;27;20235;-56
2022/07/03 13:37:27;;;;;;;2.20;2.10;;;30.90;1.00;;;;;;6321888;28;20435;-55
2022/07/03 13:40:34;;;;;;;2.70;2.63;;;31.00;1.00;;;;;;6330319;27;20244;-55
2022/07/03 13:43:37;;;;;;;2.55;2.55;;;31.00;1.00;;;;;;6315978;28;20719;-56
2022/07/03 13:46:40;;;;;;;2.33;2.30;;;31.00;1.00;;;;;;6307912;27;20346;-55
2022/07/03 13:49:43;;;;;;;2.15;2.05;;;31.20;1.00;;;;;;6315539;27;20634;-54
2022/07/03 13:52:46;;;;;;;7.85;2.75;;;31.30;1.00;;;;;;6306681;27;20814;-53
2022/07/03 13:55:55;;;;;;;2.53;2.50;;;31.20;1.00;;;;;;6332634;27;20416;-55
2022/07/03 13:58:58;;;;;;;2.83;2.63;;;31.10;1.00;;;;;;6329407;27;20331;-56
2022/07/03 14:02:01;;;;;;;2.17;2.17;;;31.20;1.00;;;;;;6321038;28;20678;-55
2022/07/03 14:05:05;;;;;;;2.83;2.63;;;31.40;1.00;;;;;;6333216;27;20921;-55
2022/07/03 14:08:08;;;;;;;2.50;2.22;;;31.50;1.00;;;;;;6322192;28;20239;-54
2022/07/03 14:11:12;;;;;;;2.38;2.28;;;31.50;1.00;;;;;;6334943;27;20725;-55
2022/07/03 14:14:15;;;;;;;2.45;2.45;;;31.40;1.00;;;;;;6328207;28;20284;-55
2022/07/03 14:17:18;;;;;;;2.70;2.70;;;31.30;1.00;;;;;;6329856;27;20227;-55
2022/07/03 14:20:21;;;;;;;2.50;2.40;;;31.30;1.00;;;;;;6329541;28;20224;-54
2022/07/03 14:23:25;;;;;;;2.67;2.30;;;31.20;1.00;;;;;;6327489;27;20322;-56
2022/07/03 14:33:11;;;;;;;2.30;2.13;;;31.00;1.00;;;;;;6324150;28;20250;-55
2022/07/03 14:36:14;;;;;;;3.03;2.33;;;30.80;1.00;;;;;;6327761;27;20235;-55
2022/07/03 14:39:37;;;;;;;2.47;2.38;;;30.90;1.00;;;;;;6324305;28;20236;-55
2022/07/03 14:42:42;;;;;;;2.45;2.45;;;30.90;1.00;;;;;;6329952;28;20732;-54
2022/07/03 14:45:45;;;;;;;2.50;2.15;;;30.90;1.00;;;;;;6319436;28;20319;-54
2022/07/03 14:48:51;;;;;;;2.00;2.00;;;30.90;1.00;;;;;;6330739;28;20386;-54
2022/07/03 14:52:02;;;;;;;2.33;2.20;;;31.10;1.00;;;;;;6330171;28;20775;-55
2022/07/03 14:55:05;;;;;;;2.50;2.42;;;31.20;1.00;;;;;;6330253;28;20284;-54
2022/07/03 14:58:17;;;;;;;2.22;2.00;;;31.10;1.00;;;;;;6339844;28;20388;-54
2022/07/03 15:01:21;;;;;;;2.53;2.33;;;31.10;1.00;;;;;;6315294;28;20239;-55
2022/07/03 15:04:38;;;;;;;2.88;2.63;;;31.00;1.00;;;;;;6325445;28;20693;-55
2022/07/03 15:07:42;;;;;;;2.42;2.42;;;30.80;1.00;;;;;;6323976;28;20247;-54
2022/07/03 15:10:45;;;;;;;2.65;2.65;;;30.70;1.00;;;;;;6330554;28;20240;-53
2022/07/03 15:13:50;;;;;;;2.33;2.30;;;30.70;1.00;;;;;;6324410;28;20822;-54
2022/07/03 15:16:55;;;;;;;2.70;2.60;;;30.80;1.00;;;;;;6331210;28;20338;-54
2022/07/03 15:20:02;;;;;;;2.38;2.28;;;30.80;1.00;;;;;;6325037;28;20554;-54
2022/07/03 15:23:07;;;;;;;2.22;2.17;;;30.80;1.00;;;;;;6333274;28;20318;-55
2022/07/03 15:26:10;;;;;;;2.58;2.38;;;30.90;1.00;;;;;;6326508;28;20281;-55
2022/07/03 15:29:16;;;;;;;2.83;2.72;;;30.90;1.00;;;;;;6337556;28;20787;-55
2022/07/03 15:32:19;;;;;;;2.88;2.78;;;30.90;1.00;;;;;;6328376;28;20374;-54
2022/07/03 15:35:24;;;;;;;2.00;2.00;;;30.90;1.00;;;;;;6327362;28;20322;-55
2022/07/03 15:38:37;;;;;;;2.17;2.08;;;31.00;1.00;;;;;;6335404;28;20259;-54
2022/07/03 15:41:51;;;;;;;2.40;2.35;;;31.00;1.00;;;;;;6328379;28;20320;-54
2022/07/03 15:45:03;;;;;;;2.88;2.70;;;31.00;1.00;;;;;;6323910;28;20676;-54
2022/07/03 15:48:14;;;;;;;2.45;2.30;;;31.00;1.00;;;;;;6338218;28;20364;-55
2022/07/03 15:51:24;;;;;;;2.72;2.63;;;30.90;1.00;;;;;;6329376;28;20220;-53
2022/07/03 15:54:47;;;;;;;2.80;2.75;;;31.00;1.00;;;;;;6331972;28;20224;-56
2022/07/03 15:57:52;;;;;;;2.60;2.50;;;31.10;1.00;;;;;;6334485;27;20236;-55
2022/07/03 16:04:28;;;;;;;2.20;2.20;;;30.90;1.00;;;;;;6330715;28;20255;-53
2022/07/03 16:07:35;;;;;;;2.60;2.50;;;30.90;1.00;;;;;;6330594;28;20236;-54
2022/07/03 16:10:39;;;;;;;2.20;2.20;;;31.10;1.00;;;;;;6327769;28;20319;-56
2022/07/03 16:13:43;;;;;;;2.50;2.50;;;31.00;1.00;;;;;;6328284;27;20244;-54
2022/07/03 16:16:48;;;;;;;2.53;2.50;;;31.00;1.00;;;;;;6323843;27;20505;-54
2022/07/03 16:19:52;;;;;;;2.63;2.47;;;30.90;1.00;;;;;;6332433;27;20255;-54
2022/07/03 16:22:57;;;;;;;2.95;2.85;;;30.80;1.00;;;;;;6329333;28;20323;-55
2022/07/03 16:26:00;;;;;;;3.60;3.33;;;30.50;1.00;;;;;;6321850;28;20284;-55
2022/07/03 16:29:04;;;;;;;4.63;3.10;;;30.30;1.00;;;;;;6331859;28;20633;-54
2022/07/03 16:32:13;;;;;;;2.60;2.50;;;30.00;1.00;;;;;;6331555;27;20260;-56
2022/07/03 16:35:22;;;;;;;2.58;2.58;;;29.80;1.00;;;;;;6330011;28;20963;-53
2022/07/03 16:38:31;;;;;;;2.83;2.80;;;29.70;1.00;;;;;;6330105;28;20401;-56
2022/07/03 16:41:37;;;;;;;2.67;2.67;;;29.60;1.00;;;;;;6329957;28;20315;-56
2022/07/03 16:44:42;;;;;;;3.45;3.35;;;29.50;1.00;;;;;;6331357;28;20236;-54
2022/07/03 16:47:48;;;;;;;3.58;3.47;;;29.50;1.00;;;;;;6323719;28;20236;-55